createdAt,value
2023-09-17T00:01:06.172Z,14.90
2023-09-17T00:04:28.866Z,14.89
2023-09-17T00:07:32.718Z,14.92
2023-09-17T00:10:38.434Z,14.93
2023-09-17T00:13:43.115Z,14.95
2023-09-17T00:16:47.695Z,14.91
2023-09-17T00:19:53.346Z,14.88
2023-09-17T00:22:57.051Z,14.90
2023-09-17T00:26:01.038Z,14.95
2023-09-17T00:29:05.813Z,15.03
2023-09-17T00:32:10.206Z,15.11
2023-09-17T00:35:15.827Z,15.13
2023-09-17T00:38:19.543Z,15.12
2023-09-17T00:41:23.626Z,15.15
2023-09-17T00:44:27.932Z,15.18
2023-09-17T00:47:32.727Z,15.23
2023-09-17T00:50:40.616Z,15.28
2023-09-17T00:53:45.238Z,15.34
2023-09-17T00:56:49.644Z,15.39
2023-09-17T00:59:53.725Z,15.40
2023-09-17T01:02:57.808Z,15.41
2023-09-17T01:06:05.229Z,15.37
2023-09-17T01:09:09.771Z,15.34
2023-09-17T01:12:14.325Z,15.36
2023-09-17T01:15:18.368Z,15.38
2023-09-17T01:18:23.395Z,15.41
2023-09-17T01:21:37.366Z,15.50
2023-09-17T01:24:48.813Z,15.56
2023-09-17T01:27:54.651Z,15.61
2023-09-17T01:30:58.938Z,15.63
2023-09-17T01:34:03.976Z,15.63
2023-09-17T01:37:16.968Z,15.65
2023-09-17T01:40:20.909Z,15.63
2023-09-17T01:43:26.515Z,15.63
2023-09-17T01:46:31.697Z,15.65
2023-09-17T01:49:36.479Z,15.68
2023-09-17T01:52:42.335Z,15.71
2023-09-17T01:55:46.157Z,15.78
2023-09-17T01:58:51.654Z,15.79
2023-09-17T02:01:55.850Z,15.83
2023-09-17T02:04:59.822Z,15.87
2023-09-17T02:08:05.016Z,15.91
2023-09-17T02:11:08.881Z,15.93
2023-09-17T02:14:14.303Z,15.92
2023-09-17T02:17:19.286Z,15.91
2023-09-17T02:20:23.082Z,15.90
2023-09-17T02:23:28.282Z,15.92
2023-09-17T02:26:32.076Z,15.92
2023-09-17T02:29:38.157Z,15.96
2023-09-17T02:32:43.161Z,15.95
2023-09-17T02:35:46.867Z,15.93
2023-09-17T02:38:51.050Z,15.90
2023-09-17T02:41:54.820Z,15.90
2023-09-17T02:45:00.203Z,15.94
2023-09-17T02:48:04.189Z,15.98
2023-09-17T02:51:07.967Z,15.96
2023-09-17T02:54:12.262Z,15.96
2023-09-17T02:57:16.037Z,15.96
2023-09-17T03:00:22.981Z,15.93
2023-09-17T03:03:27.126Z,15.92
2023-09-17T03:06:32.562Z,15.90
2023-09-17T03:09:36.820Z,15.85
2023-09-17T03:12:40.732Z,15.80
2023-09-17T03:15:46.713Z,15.76
2023-09-17T03:18:51.522Z,15.73
2023-09-17T03:21:55.273Z,15.67
2023-09-17T03:25:04.271Z,15.62
2023-09-17T03:28:13.010Z,15.56
2023-09-17T03:31:19.833Z,15.50
2023-09-17T03:34:26.343Z,15.45
2023-09-17T03:37:30.239Z,15.40
2023-09-17T03:40:34.450Z,15.33
2023-09-17T03:43:38.254Z,15.20
2023-09-17T03:46:43.911Z,15.07
2023-09-17T03:49:48.182Z,15.01
2023-09-17T03:52:55.066Z,14.97
2023-09-17T03:56:00.075Z,14.96
2023-09-17T03:59:05.909Z,14.95
2023-09-17T04:02:11.232Z,14.92
2023-09-17T04:05:15.647Z,14.90
2023-09-17T04:08:19.679Z,14.89
2023-09-17T04:11:23.824Z,14.87
2023-09-17T04:14:27.700Z,14.84
2023-09-17T04:17:33.062Z,14.84
2023-09-17T04:20:37.880Z,14.82
2023-09-17T04:23:42.519Z,14.82
2023-09-17T04:26:47.341Z,14.79
2023-09-17T04:29:51.625Z,14.79
2023-09-17T04:32:57.837Z,14.74
2023-09-17T04:36:02.166Z,14.67
2023-09-17T04:39:06.304Z,14.65
2023-09-17T04:42:10.628Z,14.64
2023-09-17T04:45:23.177Z,14.66
2023-09-17T04:48:29.039Z,14.64
2023-09-17T04:51:33.217Z,14.58
2023-09-17T04:54:37.085Z,14.56
2023-09-17T04:57:41.335Z,14.64
2023-09-17T05:00:45.661Z,14.75
2023-09-17T05:03:51.700Z,14.92
2023-09-17T05:06:56.206Z,15.10
2023-09-17T05:10:00.111Z,15.23
2023-09-17T05:13:04.968Z,15.31
2023-09-17T05:16:09.967Z,15.38
2023-09-17T05:19:15.928Z,15.46
2023-09-17T05:22:19.881Z,15.54
2023-09-17T05:25:23.944Z,15.64
2023-09-17T05:28:28.280Z,15.75
2023-09-17T05:31:33.996Z,15.87
2023-09-17T05:34:40.046Z,15.99
2023-09-17T05:37:44.929Z,16.11
2023-09-17T05:40:48.767Z,16.19
2023-09-17T05:43:53.069Z,16.30
2023-09-17T05:46:57.564Z,16.38
2023-09-17T05:50:04.811Z,16.49
2023-09-17T05:53:12.004Z,16.60
2023-09-17T05:56:15.753Z,16.70
2023-09-17T05:59:21.135Z,16.77
2023-09-17T06:02:26.258Z,16.83
2023-09-17T06:05:31.489Z,16.90
2023-09-17T06:08:35.557Z,16.98
2023-09-17T06:11:39.508Z,17.04
2023-09-17T06:14:44.337Z,17.09
2023-09-17T06:17:48.634Z,17.16
2023-09-17T06:20:54.677Z,17.27
2023-09-17T06:23:59.106Z,17.38
2023-09-17T06:27:03.157Z,17.47
2023-09-17T06:30:09.023Z,17.55
2023-09-17T06:33:12.920Z,17.64
2023-09-17T06:36:18.546Z,17.76
2023-09-17T06:39:22.824Z,17.86
2023-09-17T06:42:27.218Z,17.98
2023-09-17T06:45:32.676Z,18.08
2023-09-17T06:48:36.431Z,18.17
2023-09-17T06:51:41.761Z,18.25
2023-09-17T06:54:45.644Z,18.31
2023-09-17T06:57:49.336Z,18.40
2023-09-17T07:00:54.378Z,18.54
2023-09-17T07:03:58.404Z,18.67
2023-09-17T07:07:03.694Z,18.79
2023-09-17T07:10:09.376Z,18.88
2023-09-17T07:13:15.032Z,18.96
2023-09-17T07:16:19.407Z,19.00
2023-09-17T07:19:23.202Z,18.99
2023-09-17T07:22:28.580Z,19.01
2023-09-17T07:25:33.456Z,19.05
2023-09-17T07:28:37.341Z,19.07
2023-09-17T07:31:43.893Z,19.10
2023-09-17T07:34:47.648Z,19.14
2023-09-17T07:37:53.143Z,19.15
2023-09-17T07:40:57.626Z,19.17
2023-09-17T07:44:01.395Z,19.22
2023-09-17T07:47:07.517Z,19.28
2023-09-17T07:50:11.934Z,19.37
2023-09-17T07:53:17.376Z,19.45
2023-09-17T07:56:23.727Z,19.54
2023-09-17T07:59:29.041Z,19.61
2023-09-17T08:02:33.559Z,19.71
2023-09-17T08:05:37.284Z,19.80
2023-09-17T08:08:47.124Z,19.92
2023-09-17T08:11:51.869Z,20.04
2023-09-17T08:14:55.581Z,20.15
2023-09-17T08:17:59.913Z,20.28
2023-09-17T08:21:05.071Z,20.41
2023-09-17T08:24:11.488Z,20.56
2023-09-17T08:27:18.271Z,20.73
2023-09-17T08:30:21.974Z,20.97
2023-09-17T08:33:25.881Z,21.22
2023-09-17T08:36:29.597Z,21.52
2023-09-17T08:39:35.497Z,21.87
2023-09-17T08:42:41.272Z,22.13
2023-09-17T08:45:45.189Z,22.27
2023-09-17T08:48:49.243Z,22.29
2023-09-17T08:51:58.270Z,22.28
2023-09-17T08:55:09.201Z,22.20
2023-09-17T08:58:18.072Z,22.12
2023-09-17T09:01:26.198Z,22.12
2023-09-17T09:04:32.234Z,22.20
2023-09-17T09:07:37.229Z,22.32
2023-09-17T09:10:43.120Z,22.45
2023-09-17T09:13:51.572Z,22.65
2023-09-17T09:16:56.756Z,22.88
2023-09-17T09:20:00.860Z,23.16
2023-09-17T09:23:07.326Z,23.36
2023-09-17T09:26:12.687Z,23.44
2023-09-17T09:29:16.685Z,23.45
2023-09-17T09:32:21.307Z,23.51
2023-09-17T09:35:26.280Z,23.64
2023-09-17T09:38:30.795Z,23.64
2023-09-17T09:41:36.297Z,23.53
2023-09-17T09:44:40.476Z,23.58
2023-09-17T09:47:50.201Z,23.50
2023-09-17T09:50:54.845Z,23.49
2023-09-17T09:53:58.696Z,23.53
2023-09-17T09:57:06.162Z,23.64
2023-09-17T10:00:16.248Z,23.73
2023-09-17T10:03:21.803Z,23.78
2023-09-17T10:06:26.128Z,23.82
2023-09-17T10:09:30.377Z,23.91
2023-09-17T10:12:36.452Z,24.05
2023-09-17T10:15:43.382Z,24.30
2023-09-17T10:18:47.854Z,24.52
2023-09-17T10:21:55.420Z,24.85
2023-09-17T10:24:59.178Z,25.17
2023-09-17T10:28:06.743Z,25.27
2023-09-17T10:31:12.007Z,25.36
2023-09-17T10:34:18.914Z,25.53
2023-09-17T10:37:24.225Z,25.51
2023-09-17T10:40:29.345Z,25.48
2023-09-17T10:43:37.413Z,25.45
2023-09-17T10:46:46.493Z,25.31
2023-09-17T10:49:51.418Z,25.35
2023-09-17T10:52:55.490Z,25.41
2023-09-17T10:56:05.476Z,25.28
2023-09-17T10:59:14.592Z,25.29
2023-09-17T11:02:20.259Z,25.54
2023-09-17T11:05:27.691Z,25.60
2023-09-17T11:08:31.963Z,25.63
2023-09-17T11:11:37.031Z,25.62
2023-09-17T11:14:43.020Z,25.65
2023-09-17T11:17:48.941Z,25.68
2023-09-17T11:21:08.414Z,25.90
2023-09-17T11:24:14.009Z,25.99
2023-09-17T11:27:21.227Z,26.08
2023-09-17T11:30:26.717Z,26.09
2023-09-17T11:33:31.966Z,26.12
2023-09-17T11:36:36.130Z,26.09
2023-09-17T11:39:51.698Z,26.10
2023-09-17T11:42:55.540Z,26.35
2023-09-17T11:46:01.473Z,26.63
2023-09-17T11:49:09.248Z,26.93
2023-09-17T11:52:14.246Z,27.17
2023-09-17T11:55:24.691Z,27.37
2023-09-17T11:58:33.530Z,27.38
2023-09-17T12:01:44.424Z,27.13
2023-09-17T12:04:50.544Z,26.94
2023-09-17T12:07:55.476Z,27.05
2023-09-17T12:11:23.248Z,27.48
2023-09-17T12:14:27.717Z,28.19
2023-09-17T12:17:39.495Z,29.13
2023-09-17T12:20:58.222Z,30.56
2023-09-17T12:24:06.642Z,32.25
2023-09-17T12:27:36.476Z,33.46
2023-09-17T12:30:41.073Z,36.65
2023-09-17T12:33:46.455Z,39.51
2023-09-17T12:36:50.402Z,40.87
2023-09-17T12:39:54.590Z,40.18
2023-09-17T12:42:58.657Z,36.94
2023-09-17T12:46:02.970Z,34.51
2023-09-17T12:49:08.793Z,35.93
2023-09-17T12:52:13.596Z,35.10
2023-09-17T12:55:18.216Z,35.85
2023-09-17T12:58:23.128Z,40.00
2023-09-17T13:01:28.651Z,40.98
2023-09-17T13:04:39.281Z,42.05
2023-09-17T13:07:43.436Z,43.43
2023-09-17T13:10:47.190Z,44.46
2023-09-17T13:13:53.193Z,45.48
2023-09-17T13:16:57.345Z,46.02
2023-09-17T13:20:03.201Z,46.19
2023-09-17T13:23:07.416Z,46.26
2023-09-17T13:26:11.583Z,46.28
2023-09-17T13:29:15.531Z,46.41
2023-09-17T13:32:21.575Z,46.45
2023-09-17T13:35:29.277Z,46.56
2023-09-17T13:38:35.191Z,46.35
2023-09-17T13:41:38.905Z,46.37
2023-09-17T13:44:43.093Z,45.11
2023-09-17T13:47:46.748Z,44.88
2023-09-17T13:50:52.671Z,45.18
2023-09-17T13:53:56.557Z,45.04
2023-09-17T13:57:00.212Z,42.63
2023-09-17T14:00:04.411Z,39.16
2023-09-17T14:03:17.442Z,36.38
2023-09-17T14:06:22.876Z,34.58
2023-09-17T14:09:26.787Z,33.64
2023-09-17T14:12:30.468Z,32.74
2023-09-17T14:15:35.760Z,32.04
2023-09-17T14:18:39.522Z,31.85
2023-09-17T14:21:44.849Z,31.33
2023-09-17T14:24:48.785Z,30.70
2023-09-17T14:27:53.073Z,30.00
2023-09-17T14:30:57.189Z,29.45
2023-09-17T14:34:01.351Z,29.16
2023-09-17T14:37:06.764Z,29.04
2023-09-17T14:40:11.236Z,29.40
2023-09-17T14:43:15.104Z,29.83
2023-09-17T14:46:19.364Z,29.68
2023-09-17T14:49:23.345Z,29.96
2023-09-17T14:52:28.819Z,30.40
2023-09-17T14:55:32.727Z,30.47
2023-09-17T14:58:36.213Z,30.94
2023-09-17T15:01:59.039Z,32.17
2023-09-17T15:05:03.926Z,32.97
2023-09-17T15:08:09.623Z,33.85
2023-09-17T15:11:13.223Z,34.06
2023-09-17T15:14:17.288Z,33.57
2023-09-17T15:17:21.929Z,33.11
2023-09-17T15:20:26.423Z,32.18
2023-09-17T15:23:32.036Z,31.30
2023-09-17T15:26:35.965Z,30.62
2023-09-17T15:29:39.704Z,30.09
2023-09-17T15:32:44.027Z,29.82
2023-09-17T15:35:48.053Z,29.63
2023-09-17T15:38:53.321Z,30.03
2023-09-17T15:41:58.542Z,31.55
2023-09-17T15:45:02.400Z,33.02
2023-09-17T15:48:06.301Z,34.26
2023-09-17T15:51:11.010Z,35.29
2023-09-17T15:54:16.635Z,35.79
2023-09-17T15:57:20.614Z,35.77
2023-09-17T16:00:24.428Z,35.62
2023-09-17T16:03:28.485Z,34.85
2023-09-17T16:06:32.279Z,33.44
2023-09-17T16:09:37.652Z,32.58
2023-09-17T16:12:41.485Z,31.92
2023-09-17T16:15:45.120Z,31.33
2023-09-17T16:18:49.176Z,31.25
2023-09-17T16:21:53.071Z,30.81
2023-09-17T16:24:58.189Z,30.41
2023-09-17T16:28:02.154Z,29.78
2023-09-17T16:31:06.039Z,28.96
2023-09-17T16:34:09.949Z,28.25
2023-09-17T16:37:13.595Z,27.66
2023-09-17T16:40:19.125Z,27.10
2023-09-17T16:43:22.639Z,26.60
2023-09-17T16:46:26.529Z,26.13
2023-09-17T16:49:30.313Z,25.70
2023-09-17T16:52:34.227Z,25.34
2023-09-17T16:55:39.676Z,24.98
2023-09-17T16:58:43.672Z,24.67
2023-09-17T17:01:47.328Z,24.38
2023-09-17T17:04:55.642Z,24.09
2023-09-17T17:07:59.360Z,23.81
2023-09-17T17:11:04.955Z,23.56
2023-09-17T17:14:08.534Z,23.34
2023-09-17T17:17:12.383Z,23.10
2023-09-17T17:20:16.083Z,22.89
2023-09-17T17:23:19.860Z,22.69
2023-09-17T17:26:25.049Z,22.51
2023-09-17T17:29:29.002Z,22.31
2023-09-17T17:32:33.430Z,22.17
2023-09-17T17:35:37.404Z,22.02
2023-09-17T17:38:42.037Z,21.86
2023-09-17T17:45:04.022Z,21.53
2023-09-17T17:48:07.593Z,21.38
2023-09-17T17:51:11.259Z,21.22
2023-09-17T17:54:14.828Z,21.10
2023-09-17T17:57:20.175Z,20.99
2023-09-17T18:00:25.384Z,20.90
2023-09-17T18:03:29.138Z,20.78
2023-09-17T18:06:32.682Z,20.66
2023-09-17T18:09:35.951Z,20.54
2023-09-17T18:12:40.735Z,20.45
2023-09-17T18:15:45.645Z,20.38
2023-09-17T18:22:27.166Z,20.17
2023-09-17T18:25:32.861Z,20.12
2023-09-17T18:28:36.323Z,20.05
2023-09-17T18:31:41.115Z,19.97
2023-09-17T18:34:44.598Z,19.86
2023-09-17T18:37:48.081Z,19.80
2023-09-17T18:40:52.374Z,19.77
2023-09-17T18:43:55.965Z,19.71
2023-09-17T18:47:00.889Z,19.63
2023-09-17T18:50:04.509Z,19.56
2023-09-17T18:53:08.006Z,19.49
2023-09-17T18:56:11.486Z,19.45
2023-09-17T18:59:15.547Z,19.39
2023-09-17T19:02:20.622Z,19.35
2023-09-17T19:05:24.932Z,19.30
2023-09-17T19:08:28.608Z,19.26
2023-09-17T19:11:32.530Z,19.18
2023-09-17T19:14:36.020Z,19.13
2023-09-17T19:17:40.945Z,19.09
2023-09-17T19:20:45.183Z,19.04
2023-09-17T19:23:49.083Z,18.97
2023-09-17T19:26:52.857Z,18.92
2023-09-17T19:29:56.268Z,18.89
2023-09-17T19:33:01.359Z,18.87
2023-09-17T19:36:05.172Z,18.84
2023-09-17T19:39:09.290Z,18.83
2023-09-17T19:42:13.688Z,18.82
2023-09-17T19:45:17.281Z,18.81
2023-09-17T19:48:22.326Z,18.77
2023-09-17T19:51:25.925Z,18.73
2023-09-17T19:54:29.368Z,18.66
2023-09-17T19:57:32.865Z,18.56
2023-09-17T20:00:36.513Z,18.49
2023-09-17T20:03:41.439Z,18.46
2023-09-17T20:06:54.744Z,18.40
2023-09-17T20:09:59.257Z,18.34
2023-09-17T20:13:02.952Z,18.32
2023-09-17T20:16:06.675Z,18.33
2023-09-17T20:19:12.814Z,18.31
2023-09-17T20:22:16.366Z,18.30
2023-09-17T20:25:22.884Z,18.31
2023-09-17T20:28:26.738Z,18.31
2023-09-17T20:31:30.267Z,18.30
2023-09-17T20:34:35.199Z,18.29
2023-09-17T20:37:38.846Z,18.27
2023-09-17T20:40:42.359Z,18.25
2023-09-17T20:43:45.895Z,18.22
2023-09-17T20:46:49.437Z,18.22
2023-09-17T20:49:54.185Z,18.16
2023-09-17T20:52:57.978Z,18.14
2023-09-17T20:56:02.371Z,18.11
2023-09-17T20:59:06.004Z,18.08
2023-09-17T21:02:09.669Z,18.04
2023-09-17T21:05:16.317Z,18.03
2023-09-17T21:08:20.086Z,18.03
2023-09-17T21:11:23.576Z,17.96
2023-09-17T21:14:28.090Z,17.89
2023-09-17T21:17:31.630Z,17.86
2023-09-17T21:20:36.804Z,17.80
2023-09-17T21:23:40.240Z,17.77
2023-09-17T21:26:44.330Z,17.71
2023-09-17T21:29:47.935Z,17.68
2023-09-17T21:32:51.473Z,17.67
2023-09-17T21:35:56.709Z,17.60
2023-09-17T21:39:00.106Z,17.55
2023-09-17T21:42:03.723Z,17.57
2023-09-17T21:45:08.233Z,17.56
2023-09-17T21:48:12.788Z,17.54
2023-09-17T21:51:17.497Z,17.48
2023-09-17T21:54:21.071Z,17.46
2023-09-17T21:57:24.747Z,17.40
2023-09-17T22:00:28.456Z,17.38
2023-09-17T22:03:32.044Z,17.37
2023-09-17T22:06:37.198Z,17.34
2023-09-17T22:09:41.445Z,17.34
2023-09-17T22:12:45.334Z,17.33
2023-09-17T22:15:52.590Z,17.33
2023-09-17T22:18:56.722Z,17.28
2023-09-17T22:22:01.534Z,17.23
2023-09-17T22:25:05.502Z,17.21
2023-09-17T22:28:08.867Z,17.23
2023-09-17T22:31:13.974Z,17.23
2023-09-17T22:34:17.792Z,17.26
2023-09-17T22:37:22.843Z,17.25
2023-09-17T22:40:26.294Z,17.24
2023-09-17T22:43:29.955Z,17.22
2023-09-17T22:46:33.547Z,17.20
2023-09-17T22:49:37.419Z,17.24
2023-09-17T22:52:42.203Z,17.22
2023-09-17T22:55:45.884Z,17.21
2023-09-17T22:58:49.365Z,17.23
2023-09-17T23:01:53.187Z,17.25
2023-09-17T23:04:56.623Z,17.24
2023-09-17T23:08:01.696Z,17.19
2023-09-17T23:11:06.379Z,17.17
2023-09-17T23:14:11.662Z,17.10
2023-09-17T23:17:14.966Z,17.08
2023-09-17T23:20:18.687Z,17.06
2023-09-17T23:23:23.353Z,17.05
2023-09-17T23:26:29.238Z,17.05
2023-09-17T23:29:32.987Z,17.05
2023-09-17T23:32:37.998Z,17.07
2023-09-17T23:35:41.444Z,17.08
2023-09-17T23:38:46.325Z,17.12
2023-09-17T23:41:50.981Z,17.10
2023-09-17T23:44:54.879Z,17.05
2023-09-17T23:47:58.855Z,17.02
2023-09-17T23:51:03.156Z,17.02
2023-09-17T23:54:08.417Z,17.04
2023-09-17T23:57:14.798Z,17.04
